広島空港の過去48時間の天気

広島空港 (New hiroshima)

現在時刻: 7/17 18:30 JST (7/17 09:30 UTC) 以下の時間は現地時間です。

過去48時間のMETAR気象情報
時間 風向 風速(m/s) 視程 気温(℃) 湿度(%) 気圧(hPa) 天気現象
17 18:00 不定 1 10km以上 29 66 1012
17 17:00 2 10km以上 30 62 1012
17 16:00 南南西 2 10km以上 31 62 1012
17 15:00 南東 3 10km以上 32 56 1012
17 14:00 南東 3 10km以上 32 59 1013
17 13:00 東南東 3 10km以上 32 56 1013
17 12:00 南東 2 10km以上 32 63 1014
17 11:00 東南東 3 10km以上 31 62 1014
17 10:00 東南東 2 10km以上 30 66 1014
17 09:00 不定 1 10km以上 29 70 1014
17 08:00 不定 1 10km以上 28 74 1014
17 07:00 静穏 0 8000m 26 84 1015
17 06:10 1 7000m 25 89 1014
RJOA 170900Z VRB02KT 9999 FEW025 BKN/// 29/22 Q1012
RJOA 170800Z 18003KT 140V210 9999 FEW025 BKN/// 30/22 Q1012
RJOA 170700Z 20004KT 160V240 9999 FEW025 BKN/// 31/23 Q1012
RJOA 170600Z 13005KT 100V190 9999 FEW025 BKN/// 32/22 Q1012
RJOA 170500Z 13005KT 070V210 9999 SCT025 BKN/// 32/23 Q1013
RJOA 170400Z 12005KT 100V170 9999 FEW025 SCT/// 32/22 Q1013
RJOA 170300Z 14004KT 090V200 9999 FEW025 SCT/// 32/24 Q1014
RJOA 170200Z 11005KT 080V150 9999 FEW025 31/23 Q1014
RJOA 170100Z 12004KT 050V190 9999 FEW025 30/23 Q1014
RJOA 170000Z VRB02KT 9999 FEW025 29/23 Q1014
RJOA 162300Z VRB02KT CAVOK 28/23 Q1014
RJOA 162200Z 00000KT 8000 NSC 26/23 Q1015
RJOA 162110Z 08001KT 7000 NSC 25/23 Q1014 RMK A2996